sensor_id;sensor_type;location;lat;lon;timestamp;pressure;altitude;pressure_sealevel;temperature;humidity
17383;BME280;8809;51.892;8.384;2023-07-29T00:01:01;99810.16;;;19.80;100.00
17383;BME280;8809;51.892;8.384;2023-07-29T00:03:29;99811.09;;;19.78;100.00
17383;BME280;8809;51.892;8.384;2023-07-29T00:05:57;99804.03;;;19.77;100.00
17383;BME280;8809;51.892;8.384;2023-07-29T00:08:24;99790.81;;;19.75;100.00
17383;BME280;8809;51.892;8.384;2023-07-29T00:10:52;99798.75;;;19.74;100.00
17383;BME280;8809;51.892;8.384;2023-07-29T00:13:22;99803.16;;;19.75;100.00
17383;BME280;8809;51.892;8.384;2023-07-29T00:15:53;99795.25;;;19.73;100.00
17383;BME280;8809;51.892;8.384;2023-07-29T00:18:21;99794.38;;;19.71;100.00
17383;BME280;8809;51.892;8.384;2023-07-29T00:20:48;99797.94;;;19.70;100.00
17383;BME280;8809;51.892;8.384;2023-07-29T00:23:17;99792.63;;;19.70;100.00
17383;BME280;8809;51.892;8.384;2023-07-29T00:25:45;99787.34;;;19.70;100.00
17383;BME280;8809;51.892;8.384;2023-07-29T00:28:12;99787.34;;;19.70;100.00
17383;BME280;8809;51.892;8.384;2023-07-29T00:30:41;99790.84;;;19.71;100.00
17383;BME280;8809;51.892;8.384;2023-07-29T00:33:08;99785.53;;;19.71;100.00
17383;BME280;8809;51.892;8.384;2023-07-29T00:35:37;99788.19;;;19.72;100.00
17383;BME280;8809;51.892;8.384;2023-07-29T00:38:04;99784.66;;;19.72;100.00
17383;BME280;8809;51.892;8.384;2023-07-29T00:40:35;99796.13;;;19.72;100.00
17383;BME280;8809;51.892;8.384;2023-07-29T00:43:02;99786.41;;;19.73;100.00
17383;BME280;8809;51.892;8.384;2023-07-29T00:45:30;99790.00;;;19.70;100.00
17383;BME280;8809;51.892;8.384;2023-07-29T00:48:00;99792.66;;;19.69;100.00
17383;BME280;8809;51.892;8.384;2023-07-29T00:50:28;99791.75;;;19.70;100.00
17383;BME280;8809;51.892;8.384;2023-07-29T00:52:57;99788.22;;;19.69;100.00
17383;BME280;8809;51.892;8.384;2023-07-29T00:55:25;99787.34;;;19.67;100.00
17383;BME280;8809;51.892;8.384;2023-07-29T00:57:52;99783.84;;;19.67;100.00
17383;BME280;8809;51.892;8.384;2023-07-29T01:00:20;99770.59;;;19.67;100.00
17383;BME280;8809;51.892;8.384;2023-07-29T01:02:52;99775.91;;;19.67;100.00
17383;BME280;8809;51.892;8.384;2023-07-29T01:05:25;99775.91;;;19.67;100.00
17383;BME280;8809;51.892;8.384;2023-07-29T01:08:06;99775.03;;;19.64;100.00
17383;BME280;8809;51.892;8.384;2023-07-29T01:10:42;99776.78;;;19.64;100.00
17383;BME280;8809;51.892;8.384;2023-07-29T01:13:17;99776.78;;;19.62;100.00
17383;BME280;8809;51.892;8.384;2023-07-29T01:15:53;99780.31;;;19.61;100.00
17383;BME280;8809;51.892;8.384;2023-07-29T01:18:23;99772.38;;;19.61;100.00
17383;BME280;8809;51.892;8.384;2023-07-29T01:20:54;99770.66;;;19.60;100.00
17383;BME280;8809;51.892;8.384;2023-07-29T01:23:25;99770.69;;;19.57;100.00
17383;BME280;8809;51.892;8.384;2023-07-29T01:25:53;99772.44;;;19.58;100.00
17383;BME280;8809;51.892;8.384;2023-07-29T01:28:20;99769.78;;;19.58;100.00
17383;BME280;8809;51.892;8.384;2023-07-29T01:30:49;99769.81;;;19.57;100.00
17383;BME280;8809;51.892;8.384;2023-07-29T01:33:21;99760.09;;;19.57;100.00
17383;BME280;8809;51.892;8.384;2023-07-29T01:35:56;99763.63;;;19.56;100.00
17383;BME280;8809;51.892;8.384;2023-07-29T01:38:29;99758.34;;;19.56;100.00
17383;BME280;8809;51.892;8.384;2023-07-29T01:40:58;99755.69;;;19.55;100.00
17383;BME280;8809;51.892;8.384;2023-07-29T01:43:27;99754.81;;;19.54;100.00
17383;BME280;8809;51.892;8.384;2023-07-29T01:45:54;99755.72;;;19.53;100.00
17383;BME280;8809;51.892;8.384;2023-07-29T01:48:22;99751.31;;;19.52;100.00
17383;BME280;8809;51.892;8.384;2023-07-29T01:50:49;99742.53;;;19.50;100.00
17383;BME280;8809;51.892;8.384;2023-07-29T01:53:16;99746.94;;;19.50;100.00
17383;BME280;8809;51.892;8.384;2023-07-29T01:55:45;99740.78;;;19.48;100.00
17383;BME280;8809;51.892;8.384;2023-07-29T01:58:12;99737.22;;;19.47;100.00
17383;BME280;8809;51.892;8.384;2023-07-29T02:00:39;99739.88;;;19.46;100.00
17383;BME280;8809;51.892;8.384;2023-07-29T02:03:07;99735.47;;;19.43;100.00
17383;BME280;8809;51.892;8.384;2023-07-29T02:05:34;99740.75;;;19.43;100.00
17383;BME280;8809;51.892;8.384;2023-07-29T02:08:01;99747.84;;;19.41;100.00
17383;BME280;8809;51.892;8.384;2023-07-29T02:10:28;99746.09;;;19.40;100.00
17383;BME280;8809;51.892;8.384;2023-07-29T02:12:57;99752.28;;;19.39;100.00
17383;BME280;8809;51.892;8.384;2023-07-29T02:15:24;99746.13;;;19.36;100.00
17383;BME280;8809;51.892;8.384;2023-07-29T02:17:51;99742.59;;;19.34;100.00
17383;BME280;8809;51.892;8.384;2023-07-29T02:20:18;99746.13;;;19.33;100.00
17383;BME280;8809;51.892;8.384;2023-07-29T02:22:45;99729.38;;;19.32;100.00
17383;BME280;8809;51.892;8.384;2023-07-29T02:25:14;99739.97;;;19.34;100.00
17383;BME280;8809;51.892;8.384;2023-07-29T02:27:41;99734.66;;;19.34;100.00
17383;BME280;8809;51.892;8.384;2023-07-29T02:30:11;99733.78;;;19.35;100.00
17383;BME280;8809;51.892;8.384;2023-07-29T02:32:38;99727.63;;;19.34;100.00
17383;BME280;8809;51.892;8.384;2023-07-29T02:35:05;99729.38;;;19.35;100.00
17383;BME280;8809;51.892;8.384;2023-07-29T02:37:33;99731.13;;;19.35;100.00
17383;BME280;8809;51.892;8.384;2023-07-29T02:40:00;99729.38;;;19.35;100.00
17383;BME280;8809;51.892;8.384;2023-07-29T02:42:28;99725.84;;;19.35;100.00
17383;BME280;8809;51.892;8.384;2023-07-29T02:44:55;99721.44;;;19.35;100.00
17383;BME280;8809;51.892;8.384;2023-07-29T02:47:23;99724.06;;;19.35;100.00
17383;BME280;8809;51.892;8.384;2023-07-29T02:49:51;99734.66;;;19.35;100.00
17383;BME280;8809;51.892;8.384;2023-07-29T02:52:18;99732.00;;;19.37;100.00
17383;BME280;8809;51.892;8.384;2023-07-29T02:54:45;99731.13;;;19.39;100.00
17383;BME280;8809;51.892;8.384;2023-07-29T02:57:13;99729.34;;;19.38;100.00
17383;BME280;8809;51.892;8.384;2023-07-29T02:59:40;99722.31;;;19.36;100.00
17383;BME280;8809;51.892;8.384;2023-07-29T03:02:09;99717.00;;;19.37;100.00
17383;BME280;8809;51.892;8.384;2023-07-29T03:04:38;99708.22;;;19.35;100.00
17383;BME280;8809;51.892;8.384;2023-07-29T03:07:05;99706.44;;;19.36;100.00
17383;BME280;8809;51.892;8.384;2023-07-29T03:09:32;99703.81;;;19.34;100.00
17383;BME280;8809;51.892;8.384;2023-07-29T03:12:00;99704.66;;;19.38;100.00
17383;BME280;8809;51.892;8.384;2023-07-29T03:14:27;99701.97;;;19.42;100.00
17383;BME280;8809;51.892;8.384;2023-07-29T03:16:54;99706.47;;;19.33;100.00
17383;BME280;8809;51.892;8.384;2023-07-29T03:19:21;99698.56;;;19.31;100.00
17383;BME280;8809;51.892;8.384;2023-07-29T03:21:50;99700.34;;;19.29;100.00
17383;BME280;8809;51.892;8.384;2023-07-29T03:24:17;99707.41;;;19.27;100.00
17383;BME280;8809;51.892;8.384;2023-07-29T03:26:44;99708.28;;;19.26;100.00
17383;BME280;8809;51.892;8.384;2023-07-29T03:29:12;99704.75;;;19.25;100.00
17383;BME280;8809;51.892;8.384;2023-07-29T03:31:39;99707.41;;;19.25;100.00
17383;BME280;8809;51.892;8.384;2023-07-29T03:34:06;99710.03;;;19.27;100.00
17383;BME280;8809;51.892;8.384;2023-07-29T03:36:33;99710.94;;;19.26;100.00
17383;BME280;8809;51.892;8.384;2023-07-29T03:39:02;99708.28;;;19.26;100.00
17383;BME280;8809;51.892;8.384;2023-07-29T03:41:29;99700.34;;;19.26;100.00
17383;BME280;8809;51.892;8.384;2023-07-29T03:43:56;99694.19;;;19.24;100.00
17383;BME280;8809;51.892;8.384;2023-07-29T03:46:24;99685.38;;;19.25;100.00
17383;BME280;8809;51.892;8.384;2023-07-29T03:48:51;99689.78;;;19.26;100.00
17383;BME280;8809;51.892;8.384;2023-07-29T03:51:20;99691.53;;;19.28;100.00
17383;BME280;8809;51.892;8.384;2023-07-29T03:53:48;99693.28;;;19.28;100.00
17383;BME280;8809;51.892;8.384;2023-07-29T03:56:17;99695.94;;;19.28;100.00
17383;BME280;8809;51.892;8.384;2023-07-29T03:58:45;99681.84;;;19.26;100.00
17383;BME280;8809;51.892;8.384;2023-07-29T04:01:12;99685.34;;;19.28;100.00
17383;BME280;8809;51.892;8.384;2023-07-29T04:03:40;99686.22;;;19.28;100.00
17383;BME280;8809;51.892;8.384;2023-07-29T04:06:07;99688.00;;;19.28;100.00
17383;BME280;8809;51.892;8.384;2023-07-29T04:08:34;99683.59;;;19.27;100.00
17383;BME280;8809;51.892;8.384;2023-07-29T04:11:01;99681.81;;;19.29;100.00
17383;BME280;8809;51.892;8.384;2023-07-29T04:13:30;99680.06;;;19.31;100.00
17383;BME280;8809;51.892;8.384;2023-07-29T04:15:57;99682.69;;;19.31;100.00
17383;BME280;8809;51.892;8.384;2023-07-29T04:18:24;99673.00;;;19.30;100.00
17383;BME280;8809;51.892;8.384;2023-07-29T04:20:51;99675.66;;;19.30;100.00
17383;BME280;8809;51.892;8.384;2023-07-29T04:23:18;99685.31;;;19.33;100.00
17383;BME280;8809;51.892;8.384;2023-07-29T04:25:45;99687.06;;;19.32;100.00
17383;BME280;8809;51.892;8.384;2023-07-29T04:28:13;99692.41;;;19.31;100.00
17383;BME280;8809;51.892;8.384;2023-07-29T04:30:41;99689.72;;;19.32;100.00
17383;BME280;8809;51.892;8.384;2023-07-29T04:33:08;99687.06;;;19.35;100.00
17383;BME280;8809;51.892;8.384;2023-07-29T04:35:36;99682.63;;;19.37;100.00
17383;BME280;8809;51.892;8.384;2023-07-29T04:38:03;99683.50;;;19.39;100.00
17383;BME280;8809;51.892;8.384;2023-07-29T04:40:32;99684.38;;;19.38;100.00
17383;BME280;8809;51.892;8.384;2023-07-29T04:43:00;99688.78;;;19.39;100.00
17383;BME280;8809;51.892;8.384;2023-07-29T04:45:28;99684.38;;;19.41;100.00
17383;BME280;8809;51.892;8.384;2023-07-29T04:47:59;99684.38;;;19.41;100.00
17383;BME280;8809;51.892;8.384;2023-07-29T04:50:26;99685.25;;;19.40;100.00
17383;BME280;8809;51.892;8.384;2023-07-29T04:52:53;99684.31;;;19.44;100.00
17383;BME280;8809;51.892;8.384;2023-07-29T04:55:20;99679.91;;;19.45;100.00
17383;BME280;8809;51.892;8.384;2023-07-29T04:57:48;99670.22;;;19.44;100.00
17383;BME280;8809;51.892;8.384;2023-07-29T05:00:15;99670.22;;;19.45;100.00
17383;BME280;8809;51.892;8.384;2023-07-29T05:02:42;99673.72;;;19.46;100.00
17383;BME280;8809;51.892;8.384;2023-07-29T05:05:11;99666.69;;;19.46;100.00
17383;BME280;8809;51.892;8.384;2023-07-29T05:07:38;99669.34;;;19.49;100.00
17383;BME280;8809;51.892;8.384;2023-07-29T05:10:06;99674.63;;;19.49;100.00
17383;BME280;8809;51.892;8.384;2023-07-29T05:12:34;99668.44;;;19.50;100.00
17383;BME280;8809;51.892;8.384;2023-07-29T05:15:01;99664.88;;;19.51;100.00
17383;BME280;8809;51.892;8.384;2023-07-29T05:17:28;99656.03;;;19.55;100.00
17383;BME280;8809;51.892;8.384;2023-07-29T05:19:56;99664.84;;;19.57;100.00
17383;BME280;8809;51.892;8.384;2023-07-29T05:22:25;99655.13;;;19.59;100.00
17383;BME280;8809;51.892;8.384;2023-07-29T05:24:52;99663.00;;;19.62;100.00
17383;BME280;8809;51.892;8.384;2023-07-29T05:27:19;99661.25;;;19.63;100.00
17383;BME280;8809;51.892;8.384;2023-07-29T05:29:47;99661.22;;;19.64;100.00
17383;BME280;8809;51.892;8.384;2023-07-29T05:32:15;99663.84;;;19.68;100.00
17383;BME280;8809;51.892;8.384;2023-07-29T05:34:43;99665.59;;;19.70;100.00
17383;BME280;8809;51.892;8.384;2023-07-29T05:37:10;99658.50;;;19.71;100.00
17383;BME280;8809;51.892;8.384;2023-07-29T05:39:38;99657.63;;;19.72;100.00
17383;BME280;8809;51.892;8.384;2023-07-29T05:42:06;99648.81;;;19.71;100.00
17383;BME280;8809;51.892;8.384;2023-07-29T05:44:33;99646.16;;;19.73;100.00
17383;BME280;8809;51.892;8.384;2023-07-29T05:47:00;99647.00;;;19.76;100.00
17383;BME280;8809;51.892;8.384;2023-07-29T05:49:28;99653.16;;;19.78;100.00
17383;BME280;8809;51.892;8.384;2023-07-29T05:51:55;99660.22;;;19.78;100.00
17383;BME280;8809;51.892;8.384;2023-07-29T05:54:23;99665.53;;;19.78;100.00
17383;BME280;8809;51.892;8.384;2023-07-29T05:56:51;99662.88;;;19.78;100.00
17383;BME280;8809;51.892;8.384;2023-07-29T05:59:18;99666.41;;;19.78;100.00
17383;BME280;8809;51.892;8.384;2023-07-29T06:01:45;99666.38;;;19.80;100.00
17383;BME280;8809;51.892;8.384;2023-07-29T06:04:12;99669.88;;;19.82;100.00
17383;BME280;8809;51.892;8.384;2023-07-29T06:06:39;99673.41;;;19.82;100.00
17383;BME280;8809;51.892;8.384;2023-07-29T06:09:08;99676.03;;;19.84;100.00
17383;BME280;8809;51.892;8.384;2023-07-29T06:11:35;99684.84;;;19.84;100.00
17383;BME280;8809;51.892;8.384;2023-07-29T06:14:03;99692.78;;;19.86;100.00
17383;BME280;8809;51.892;8.384;2023-07-29T06:16:30;99690.13;;;19.86;100.00
17383;BME280;8809;51.892;8.384;2023-07-29T06:18:57;99682.19;;;19.84;100.00
17383;BME280;8809;51.892;8.384;2023-07-29T06:21:24;99692.78;;;19.84;100.00
17383;BME280;8809;51.892;8.384;2023-07-29T06:23:51;99684.81;;;19.87;100.00
17383;BME280;8809;51.892;8.384;2023-07-29T06:26:19;99676.88;;;19.87;100.00
17383;BME280;8809;51.892;8.384;2023-07-29T06:28:46;99666.22;;;19.92;100.00
17383;BME280;8809;51.892;8.384;2023-07-29T06:31:15;99659.16;;;19.94;100.00
17383;BME280;8809;51.892;8.384;2023-07-29T06:33:42;99644.13;;;19.96;100.00
17383;BME280;8809;51.892;8.384;2023-07-29T06:36:09;99646.75;;;19.99;100.00
17383;BME280;8809;51.892;8.384;2023-07-29T06:38:36;99654.63;;;20.05;100.00
17383;BME280;8809;51.892;8.384;2023-07-29T06:41:04;99664.31;;;20.08;100.00
17383;BME280;8809;51.892;8.384;2023-07-29T06:43:31;99672.25;;;20.06;100.00
17383;BME280;8809;51.892;8.384;2023-07-29T06:45:58;99683.72;;;20.08;100.00
17383;BME280;8809;51.892;8.384;2023-07-29T06:48:27;99691.63;;;20.10;100.00
17383;BME280;8809;51.892;8.384;2023-07-29T06:50:54;99692.50;;;20.10;100.00
17383;BME280;8809;51.892;8.384;2023-07-29T06:53:26;99694.31;;;20.08;100.00
17383;BME280;8809;51.892;8.384;2023-07-29T06:55:53;99702.22;;;20.10;100.00
17383;BME280;8809;51.892;8.384;2023-07-29T06:58:21;99705.72;;;20.10;100.00
17383;BME280;8809;51.892;8.384;2023-07-29T07:00:48;99714.56;;;20.09;100.00
17383;BME280;8809;51.892;8.384;2023-07-29T07:03:15;99716.38;;;20.09;100.00
17383;BME280;8809;51.892;8.384;2023-07-29T07:05:44;99728.72;;;20.08;100.00
17383;BME280;8809;51.892;8.384;2023-07-29T07:08:12;99732.25;;;20.09;100.00
17383;BME280;8809;51.892;8.384;2023-07-29T07:10:39;99733.16;;;20.06;100.00
17383;BME280;8809;51.892;8.384;2023-07-29T07:13:06;99732.25;;;20.09;100.00
17383;BME280;8809;51.892;8.384;2023-07-29T07:15:33;99741.03;;;20.12;100.00
17383;BME280;8809;51.892;8.384;2023-07-29T07:18:00;99738.38;;;20.12;100.00
17383;BME280;8809;51.892;8.384;2023-07-29T07:20:28;99737.47;;;20.15;100.00
17383;BME280;8809;51.892;8.384;2023-07-29T07:22:57;99733.06;;;20.17;100.00
17383;BME280;8809;51.892;8.384;2023-07-29T07:25:24;99737.38;;;20.22;100.00
17383;BME280;8809;51.892;8.384;2023-07-29T07:27:51;99732.06;;;20.24;100.00
17383;BME280;8809;51.892;8.384;2023-07-29T07:30:19;99746.19;;;20.26;100.00
17383;BME280;8809;51.892;8.384;2023-07-29T07:32:46;99754.13;;;20.27;100.00
17383;BME280;8809;51.892;8.384;2023-07-29T07:35:13;99746.97;;;20.34;100.00
17383;BME280;8809;51.892;8.384;2023-07-29T07:37:40;99746.06;;;20.38;100.00
17383;BME280;8809;51.892;8.384;2023-07-29T07:40:09;99744.34;;;20.37;100.00
17383;BME280;8809;51.892;8.384;2023-07-29T07:42:36;99759.25;;;20.43;100.00
17383;BME280;8809;51.892;8.384;2023-07-29T07:45:04;99753.94;;;20.46;100.00
17383;BME280;8809;51.892;8.384;2023-07-29T07:47:32;99752.97;;;20.50;100.00
17383;BME280;8809;51.892;8.384;2023-07-29T07:49:59;99758.28;;;20.51;100.00
17383;BME280;8809;51.892;8.384;2023-07-29T07:52:26;99755.59;;;20.56;100.00
17383;BME280;8809;51.892;8.384;2023-07-29T07:54:54;99747.56;;;20.60;100.00
17383;BME280;8809;51.892;8.384;2023-07-29T07:57:23;99756.34;;;20.64;100.00
17383;BME280;8809;51.892;8.384;2023-07-29T07:59:50;99755.44;;;20.66;100.00
17383;BME280;8809;51.892;8.384;2023-07-29T08:02:18;99763.41;;;20.66;100.00
17383;BME280;8809;51.892;8.384;2023-07-29T08:04:46;99755.47;;;20.65;100.00
17383;BME280;8809;51.892;8.384;2023-07-29T08:07:13;99751.06;;;20.64;100.00
17383;BME280;8809;51.892;8.384;2023-07-29T08:09:43;99751.03;;;20.65;100.00
17383;BME280;8809;51.892;8.384;2023-07-29T08:12:10;99753.63;;;20.70;100.00
17383;BME280;8809;51.892;8.384;2023-07-29T08:14:41;99756.28;;;20.68;100.00
17383;BME280;8809;51.892;8.384;2023-07-29T08:17:09;99758.16;;;20.62;100.00
17383;BME280;8809;51.892;8.384;2023-07-29T08:19:36;99762.63;;;20.57;100.00
17383;BME280;8809;51.892;8.384;2023-07-29T08:22:03;99766.22;;;20.53;100.00
17383;BME280;8809;51.892;8.384;2023-07-29T08:24:31;99785.69;;;20.49;100.00
17383;BME280;8809;51.892;8.384;2023-07-29T08:26:59;99781.41;;;20.37;100.00
17383;BME280;8809;51.892;8.384;2023-07-29T08:29:26;99778.72;;;20.38;100.00
17383;BME280;8809;51.892;8.384;2023-07-29T08:31:55;99791.94;;;20.42;100.00
17383;BME280;8809;51.892;8.384;2023-07-29T08:34:22;99782.25;;;20.41;100.00
17383;BME280;8809;51.892;8.384;2023-07-29T08:36:49;99774.28;;;20.44;100.00
17383;BME280;8809;51.892;8.384;2023-07-29T08:39:16;99774.28;;;20.42;100.00
17383;BME280;8809;51.892;8.384;2023-07-29T08:41:48;99768.09;;;20.43;100.00
17383;BME280;8809;51.892;8.384;2023-07-29T08:44:20;99776.91;;;20.44;100.00
17383;BME280;8809;51.892;8.384;2023-07-29T08:46:48;99770.66;;;20.49;100.00
17383;BME280;8809;51.892;8.384;2023-07-29T08:49:18;99773.19;;;20.58;100.00
17383;BME280;8809;51.892;8.384;2023-07-29T08:51:46;99766.06;;;20.65;100.00
17383;BME280;8809;51.892;8.384;2023-07-29T08:54:14;99772.06;;;20.79;100.00
17383;BME280;8809;51.892;8.384;2023-07-29T08:56:42;99773.66;;;20.92;100.00
17383;BME280;8809;51.892;8.384;2023-07-29T08:59:10;99772.63;;;21.02;100.00
17383;BME280;8809;51.892;8.384;2023-07-29T09:01:38;99764.59;;;21.07;100.00
17383;BME280;8809;51.892;8.384;2023-07-29T09:04:05;99767.25;;;21.05;100.00
17383;BME280;8809;51.892;8.384;2023-07-29T09:06:35;99768.97;;;21.09;100.00
17383;BME280;8809;51.892;8.384;2023-07-29T09:09:04;99778.75;;;21.06;100.00
17383;BME280;8809;51.892;8.384;2023-07-29T09:11:32;99776.97;;;21.06;100.00
17383;BME280;8809;51.892;8.384;2023-07-29T09:13:59;99775.09;;;21.15;100.00
17383;BME280;8809;51.892;8.384;2023-07-29T09:16:27;99781.25;;;21.17;100.00
17383;BME280;8809;51.892;8.384;2023-07-29T09:18:54;99790.06;;;21.22;100.00
17383;BME280;8809;51.892;8.384;2023-07-29T09:21:24;99794.22;;;21.39;100.00
17383;BME280;8809;51.892;8.384;2023-07-29T09:23:54;99790.41;;;21.56;100.00
17383;BME280;8809;51.892;8.384;2023-07-29T09:26:25;99786.81;;;21.61;100.00
17383;BME280;8809;51.892;8.384;2023-07-29T09:28:53;99789.31;;;21.70;100.00
17383;BME280;8809;51.892;8.384;2023-07-29T09:31:24;99782.81;;;21.88;100.00
17383;BME280;8809;51.892;8.384;2023-07-29T09:33:55;99784.22;;;22.10;100.00
17383;BME280;8809;51.892;8.384;2023-07-29T09:36:23;99802.47;;;22.29;100.00
17383;BME280;8809;51.892;8.384;2023-07-29T09:38:54;99786.66;;;22.21;100.00
17383;BME280;8809;51.892;8.384;2023-07-29T09:41:25;99795.19;;;22.38;100.00
17383;BME280;8809;51.892;8.384;2023-07-29T09:43:56;99791.66;;;22.39;100.00
17383;BME280;8809;51.892;8.384;2023-07-29T09:46:25;99793.31;;;22.43;100.00
17383;BME280;8809;51.892;8.384;2023-07-29T09:48:58;99783.16;;;22.64;100.00
17383;BME280;8809;51.892;8.384;2023-07-29T09:51:26;99783.84;;;22.73;100.00
17383;BME280;8809;51.892;8.384;2023-07-29T09:53:57;99782.63;;;22.89;100.00
17383;BME280;8809;51.892;8.384;2023-07-29T09:56:26;99789.22;;;23.13;100.00
17383;BME280;8809;51.892;8.384;2023-07-29T09:58:55;99784.66;;;23.18;100.00
17383;BME280;8809;51.892;8.384;2023-07-29T10:01:24;99786.41;;;23.19;100.00
17383;BME280;8809;51.892;8.384;2023-07-29T10:03:54;99784.41;;;23.29;100.00
17383;BME280;8809;51.892;8.384;2023-07-29T10:06:26;99782.34;;;23.42;100.00
17383;BME280;8809;51.892;8.384;2023-07-29T10:08:56;99785.16;;;23.36;100.00
17383;BME280;8809;51.892;8.384;2023-07-29T10:11:23;99773.81;;;23.27;100.00
17383;BME280;8809;51.892;8.384;2023-07-29T10:13:51;99783.53;;;23.28;100.00
17383;BME280;8809;51.892;8.384;2023-07-29T10:16:19;99781.06;;;23.21;100.00
17383;BME280;8809;51.892;8.384;2023-07-29T10:18:48;99777.38;;;23.26;100.00
17383;BME280;8809;51.892;8.384;2023-07-29T10:21:16;99787.69;;;23.42;100.00
17383;BME280;8809;51.892;8.384;2023-07-29T10:23:47;99783.09;;;23.47;98.96
17383;BME280;8809;51.892;8.384;2023-07-29T10:26:19;99788.66;;;23.38;97.87
17383;BME280;8809;51.892;8.384;2023-07-29T10:28:50;99775.53;;;23.30;100.00
17383;BME280;8809;51.892;8.384;2023-07-29T10:31:20;99771.47;;;23.14;100.00
17383;BME280;8809;51.892;8.384;2023-07-29T10:33:49;99781.25;;;23.13;100.00
17383;BME280;8809;51.892;8.384;2023-07-29T10:36:17;99787.97;;;23.29;100.00
17383;BME280;8809;51.892;8.384;2023-07-29T10:38:45;99775.50;;;23.31;100.00
17383;BME280;8809;51.892;8.384;2023-07-29T10:41:12;99782.63;;;23.29;100.00
17383;BME280;8809;51.892;8.384;2023-07-29T10:43:41;99786.34;;;23.22;100.00
17383;BME280;8809;51.892;8.384;2023-07-29T10:46:16;99788.16;;;23.20;100.00
17383;BME280;8809;51.892;8.384;2023-07-29T10:48:54;99788.13;;;23.22;99.70
17383;BME280;8809;51.892;8.384;2023-07-29T10:51:28;99780.38;;;23.13;100.00
17383;BME280;8809;51.892;8.384;2023-07-29T10:54:00;99784.28;;;23.35;99.71
17383;BME280;8809;51.892;8.384;2023-07-29T10:56:30;99784.00;;;23.46;98.73
17383;BME280;8809;51.892;8.384;2023-07-29T11:01:52;99791.69;;;23.61;95.96
17383;BME280;8809;51.892;8.384;2023-07-29T11:04:23;99787.22;;;23.61;97.13
17383;BME280;8809;51.892;8.384;2023-07-29T11:07:22;99789.94;;;23.60;96.86
17383;BME280;8809;51.892;8.384;2023-07-29T11:10:00;99777.19;;;23.73;98.43
17383;BME280;8809;51.892;8.384;2023-07-29T11:12:41;99777.25;;;23.70;98.83
17383;BME280;8809;51.892;8.384;2023-07-29T11:15:20;99784.69;;;23.55;98.45
17383;BME280;8809;51.892;8.384;2023-07-29T11:17:50;99777.75;;;23.50;100.00
17383;BME280;8809;51.892;8.384;2023-07-29T11:20:20;99778.75;;;23.44;100.00
17383;BME280;8809;51.892;8.384;2023-07-29T11:22:48;99777.97;;;23.39;99.25
17383;BME280;8809;51.892;8.384;2023-07-29T11:25:17;99768.34;;;23.34;99.16
17383;BME280;8809;51.892;8.384;2023-07-29T11:27:45;99763.81;;;23.37;100.00
17383;BME280;8809;51.892;8.384;2023-07-29T11:30:15;99770.81;;;23.41;100.00
17383;BME280;8809;51.892;8.384;2023-07-29T11:32:44;99767.00;;;23.54;100.00
17383;BME280;8809;51.892;8.384;2023-07-29T11:35:13;99763.91;;;23.71;100.00
17383;BME280;8809;51.892;8.384;2023-07-29T11:37:43;99751.03;;;23.88;100.00
17383;BME280;8809;51.892;8.384;2023-07-29T11:40:14;99761.13;;;24.10;100.00
17383;BME280;8809;51.892;8.384;2023-07-29T11:42:41;99776.56;;;24.31;96.59
17383;BME280;8809;51.892;8.384;2023-07-29T11:45:09;99768.72;;;24.25;94.33
17383;BME280;8809;51.892;8.384;2023-07-29T11:47:37;99768.69;;;24.26;93.63
17383;BME280;8809;51.892;8.384;2023-07-29T11:50:07;99760.94;;;24.50;95.37
17383;BME280;8809;51.892;8.384;2023-07-29T11:52:36;99759.63;;;24.63;91.99
17383;BME280;8809;51.892;8.384;2023-07-29T11:55:07;99769.28;;;24.68;92.51
17383;BME280;8809;51.892;8.384;2023-07-29T11:57:36;99760.88;;;24.81;92.22
17383;BME280;8809;51.892;8.384;2023-07-29T12:00:04;99770.38;;;24.92;90.67
17383;BME280;8809;51.892;8.384;2023-07-29T12:02:33;99764.09;;;24.93;90.11
17383;BME280;8809;51.892;8.384;2023-07-29T12:05:03;99758.81;;;24.92;92.61
17383;BME280;8809;51.892;8.384;2023-07-29T12:07:35;99760.41;;;24.99;91.92
17383;BME280;8809;51.892;8.384;2023-07-29T12:10:03;99772.41;;;24.83;91.49
17383;BME280;8809;51.892;8.384;2023-07-29T12:12:30;99768.53;;;24.63;93.97
17383;BME280;8809;51.892;8.384;2023-07-29T12:14:58;99769.66;;;24.55;95.26
17383;BME280;8809;51.892;8.384;2023-07-29T12:17:26;99763.09;;;24.35;97.41
17383;BME280;8809;51.892;8.384;2023-07-29T12:19:54;99768.94;;;24.16;96.27
17383;BME280;8809;51.892;8.384;2023-07-29T12:22:21;99766.28;;;24.16;97.95
17383;BME280;8809;51.892;8.384;2023-07-29T12:24:51;99770.09;;;24.05;100.00
17383;BME280;8809;51.892;8.384;2023-07-29T12:27:21;99768.59;;;23.95;96.96
17383;BME280;8809;51.892;8.384;2023-07-29T12:29:51;99758.72;;;24.00;99.10
17383;BME280;8809;51.892;8.384;2023-07-29T12:32:20;99766.13;;;23.88;98.84
17383;BME280;8809;51.892;8.384;2023-07-29T12:34:47;99771.50;;;23.86;97.04
17383;BME280;8809;51.892;8.384;2023-07-29T12:37:14;99761.75;;;23.85;100.00
17383;BME280;8809;51.892;8.384;2023-07-29T12:39:41;99759.03;;;23.88;100.00
17383;BME280;8809;51.892;8.384;2023-07-29T12:42:10;99768.88;;;23.85;100.00
17383;BME280;8809;51.892;8.384;2023-07-29T12:44:37;99765.53;;;23.77;100.00
17383;BME280;8809;51.892;8.384;2023-07-29T12:47:06;99758.69;;;23.66;100.00
17383;BME280;8809;51.892;8.384;2023-07-29T12:49:35;99765.97;;;23.60;100.00
17383;BME280;8809;51.892;8.384;2023-07-29T12:52:03;99768.81;;;23.52;100.00
17383;BME280;8809;51.892;8.384;2023-07-29T12:54:30;99757.31;;;23.50;100.00
17383;BME280;8809;51.892;8.384;2023-07-29T12:56:57;99753.94;;;23.42;100.00
17383;BME280;8809;51.892;8.384;2023-07-29T12:59:26;99749.63;;;23.37;100.00
17383;BME280;8809;51.892;8.384;2023-07-29T13:01:53;99749.97;;;23.60;100.00
17383;BME280;8809;51.892;8.384;2023-07-29T13:04:20;99742.28;;;23.83;100.00
17383;BME280;8809;51.892;8.384;2023-07-29T13:06:47;99746.00;;;24.10;100.00
17383;BME280;8809;51.892;8.384;2023-07-29T13:09:14;99740.06;;;24.33;100.00
17383;BME280;8809;51.892;8.384;2023-07-29T13:11:41;99746.81;;;24.46;100.00